Time;durP1;ratioP1;P1;durP2;ratioP2;P2;SDS_P1;SDS_P2;PMS_P1;PMS_P2;Temp;Humidity;BMP_temperature;BMP_pressure;BME280_temperature;BME280_humidity;BME280_pressure;Samples;Min_cycle;Max_cycle;Signal;HPM_P1;HPM_P2
2023/08/28 00:01:57;;;;;;;;;;;;;;;-140.72;100.00;52857.59;6277142;22;19920;-67
2023/08/28 00:04:22;;;;;;;;;;;;;;;-140.72;100.00;52825.13;6278992;22;19915;-70
2023/08/28 00:06:47;;;;;;;;;;;;;;;-140.72;100.00;52841.34;6275848;22;19934;-68
2023/08/28 00:09:13;;;;;;;;;;;;;;;-140.72;100.00;52827.16;6276813;22;19911;-70
2023/08/28 00:11:38;;;;;;;;;;;;;;;-140.72;100.00;52849.47;6275099;22;19998;-68
2023/08/28 00:14:03;;;;;;;;;;;;;;;-140.72;100.00;52817.00;6276754;22;19911;-68
2023/08/28 00:16:28;;;;;;;;;;;;;;;-140.72;100.00;52823.09;6275076;22;19911;-68
2023/08/28 00:18:54;;;;;;;;;;;;;;;-140.72;100.00;52810.91;6276671;22;19912;-68
2023/08/28 00:21:20;;;;;;;;;;;;;;;-140.72;100.00;52865.69;6276608;22;19912;-68
2023/08/28 00:23:46;;;;;;;;;;;;;;;-140.72;100.00;52827.16;6275658;22;20353;-68
2023/08/28 00:26:12;;;;;;;;;;;;;;;-140.72;100.00;52849.47;6275933;22;19938;-68
2023/08/28 00:28:37;;;;;;;;;;;;;;;-140.72;100.00;52869.75;6277467;22;19911;-68
2023/08/28 00:31:06;;;;;;;;;;;;;;;-140.72;100.00;52851.50;6301002;22;19919;-67
2023/08/28 00:33:32;;;;;;;;;;;;;;;-140.72;100.00;52863.66;6276841;22;19918;-67
2023/08/28 00:35:59;;;;;;;;;;;;;;;-140.72;100.00;52845.41;6245572;22;20177;-67
2023/08/28 00:38:24;;;;;;;;;;;;;;;-140.72;100.00;52873.81;6246704;23;19916;-67
2023/08/28 00:40:49;;;;;;;;;;;;;;;-140.72;100.00;52790.63;6246001;23;19922;-67
2023/08/28 00:43:14;;;;;;;;;;;;;;;-140.72;100.00;52784.53;6246098;23;19911;-68
2023/08/28 00:45:42;;;;;;;;;;;;;;;-140.72;100.00;52855.56;6269680;22;19919;-67
2023/08/28 00:48:23;;;;;;;;;;;;;;;-140.72;100.00;52859.63;6245507;22;20255;-67
2023/08/28 00:50:49;;;;;;;;;;;;;;;-140.72;100.00;52861.66;6246131;23;19919;-67
2023/08/28 00:53:16;;;;;;;;;;;;;;;-140.72;100.00;52849.47;6246211;23;19915;-68
2023/08/28 00:55:42;;;;;;;;;;;;;;;-140.72;100.00;52853.53;6246080;23;19918;-68
2023/08/28 00:58:08;;;;;;;;;;;;;;;-140.72;100.00;52863.66;6246050;23;19912;-68
2023/08/28 01:00:33;;;;;;;;;;;;;;;-140.72;100.00;52859.63;6246248;23;20045;-69
2023/08/28 01:02:59;;;;;;;;;;;;;;;-140.72;100.00;52873.81;6247530;23;20046;-68
2023/08/28 01:05:29;;;;;;;;;;;;;;;-140.72;100.00;52865.69;6246074;23;20194;-68
2023/08/28 01:08:10;;;;;;;;;;;;;;;-140.72;100.00;52853.53;6246124;22;19951;-68
2023/08/28 01:10:38;;;;;;;;;;;;;;;-140.72;100.00;52869.75;6247699;23;19918;-68
2023/08/28 01:13:28;;;;;;;;;;;;;;;-140.72;100.00;52869.75;6246291;23;20031;-68
2023/08/28 01:15:54;;;;;;;;;;;;;;;-140.72;100.00;52798.72;6246490;23;19911;-70
2023/08/28 01:18:20;;;;;;;;;;;;;;;-140.72;100.00;52871.78;6271836;22;19912;-68
2023/08/28 01:20:47;;;;;;;;;;;;;;;-140.72;100.00;52806.84;6247907;23;19967;-68
2023/08/28 01:23:18;;;;;;;;;;;;;;;-140.72;100.00;52863.66;6247895;23;19915;-68
2023/08/28 01:25:44;;;;;;;;;;;;;;;-140.72;100.00;52857.59;6247680;23;19915;-68
2023/08/28 01:28:09;;;;;;;;;;;;;;;-140.72;100.00;52861.66;6247914;23;19912;-68
2023/08/28 01:30:34;;;;;;;;;;;;;;;-140.72;100.00;52851.50;6248068;23;19994;-68
2023/08/28 01:32:59;;;;;;;;;;;;;;;-140.72;100.00;52873.81;6247949;23;19912;-68
2023/08/28 01:35:26;;;;;;;;;;;;;;;-140.72;100.00;52849.47;6271623;22;19942;-68
2023/08/28 01:38:00;;;;;;;;;;;;;;;-140.72;100.00;52821.06;6278184;22;19912;-68
2023/08/28 01:40:29;;;;;;;;;;;;;;;-140.72;100.00;52863.66;6278478;22;19912;-67
2023/08/28 01:42:55;;;;;;;;;;;;;;;-140.72;100.00;52869.75;6278399;22;19911;-68
2023/08/28 01:45:20;;;;;;;;;;;;;;;-140.72;100.00;52890.06;6276441;22;20262;-68
2023/08/28 01:47:46;;;;;;;;;;;;;;;-140.72;100.00;52867.72;6277948;22;19911;-68
2023/08/28 01:50:11;;;;;;;;;;;;;;;-140.72;100.00;52855.56;6277863;22;19919;-68
2023/08/28 01:52:36;;;;;;;;;;;;;;;-140.72;100.00;52831.19;6302278;22;19915;-68
2023/08/28 01:55:04;;;;;;;;;;;;;;;-140.72;100.00;52869.75;6278240;22;19911;-68
2023/08/28 01:57:29;;;;;;;;;;;;;;;-140.72;100.00;52863.66;6279096;22;20248;-68
2023/08/28 02:00:01;;;;;;;;;;;;;;;-140.72;100.00;52851.50;6278073;22;19915;-68
2023/08/28 02:02:26;;;;;;;;;;;;;;;-140.72;100.00;52875.84;6276751;22;19911;-67
2023/08/28 02:04:51;;;;;;;;;;;;;;;-140.72;100.00;52879.91;6278035;22;20320;-67
2023/08/28 02:07:20;;;;;;;;;;;;;;;-140.72;100.00;52904.25;6301836;22;20247;-67
2023/08/28 02:09:45;;;;;;;;;;;;;;;-140.72;100.00;52881.94;6277852;22;19946;-68
2023/08/28 02:12:10;;;;;;;;;;;;;;;-140.72;100.00;52869.75;6276691;22;19908;-68
2023/08/28 02:14:35;;;;;;;;;;;;;;;-140.72;100.00;52869.75;6277927;22;20169;-68
2023/08/28 02:17:01;;;;;;;;;;;;;;;-140.72;100.00;52863.66;6276879;22;19958;-68
2023/08/28 02:19:43;;;;;;;;;;;;;;;-140.72;100.00;52894.13;6278069;22;19916;-68
2023/08/28 02:22:08;;;;;;;;;;;;;;;-140.72;100.00;52879.91;6278248;22;19914;-68
2023/08/28 02:24:35;;;;;;;;;;;;;;;-140.72;100.00;52871.78;6277873;22;19915;-68
2023/08/28 02:27:00;;;;;;;;;;;;;;;-140.72;100.00;52871.78;6279163;22;19918;-68
2023/08/28 02:29:26;;;;;;;;;;;;;;;-140.72;100.00;52867.72;6278027;22;19994;-68
2023/08/28 02:31:52;;;;;;;;;;;;;;;-140.72;100.00;52871.78;6277360;22;20348;-68
2023/08/28 02:34:17;;;;;;;;;;;;;;;-140.72;100.00;52877.88;6300223;22;19945;-68
2023/08/28 02:36:43;;;;;;;;;;;;;;;-140.72;100.00;52843.38;6277836;22;19915;-68
2023/08/28 02:39:16;;;;;;;;;;;;;;;-140.72;100.00;52873.81;6277708;22;19917;-67
2023/08/28 02:41:41;;;;;;;;;;;;;;;-140.72;100.00;52863.66;6277612;22;19918;-67
2023/08/28 02:44:07;;;;;;;;;;;;;;;-140.72;100.00;52890.06;6276327;22;20263;-68
2023/08/28 02:46:32;;;;;;;;;;;;;;;-140.72;100.00;52879.91;6275616;22;19994;-68
2023/08/28 02:48:59;;;;;;;;;;;;;;;-140.72;100.00;52902.22;6275782;22;19911;-68
2023/08/28 02:51:24;;;;;;;;;;;;;;;-140.72;100.00;52881.94;6276756;22;20228;-68
2023/08/28 02:54:12;;;;;;;;;;;;;;;-140.72;100.00;52859.63;6276787;22;19915;-68
2023/08/28 02:56:38;;;;;;;;;;;;;;;-140.72;100.00;52865.69;6277307;22;19911;-68
2023/08/28 02:59:04;;;;;;;;;;;;;;;-140.72;100.00;52922.53;6277490;22;19913;-68
2023/08/28 03:01:34;;;;;;;;;;;;;;;-140.72;100.00;52871.78;6277455;22;19990;-68
2023/08/28 03:03:59;;;;;;;;;;;;;;;-140.72;100.00;52879.91;6276011;22;20380;-68
2023/08/28 03:06:25;;;;;;;;;;;;;;;-140.72;100.00;52879.91;6301469;22;19943;-68
2023/08/28 03:08:50;;;;;;;;;;;;;;;-140.72;100.00;52904.25;6276428;22;19953;-68
2023/08/28 03:11:27;;;;;;;;;;;;;;;-140.72;100.00;52904.25;6277449;22;19911;-68
2023/08/28 03:13:52;;;;;;;;;;;;;;;-140.72;100.00;52902.22;6277244;22;20283;-68
2023/08/28 03:16:17;;;;;;;;;;;;;;;-140.72;100.00;52865.69;6275593;22;19961;-70
2023/08/28 03:18:42;;;;;;;;;;;;;;;-140.72;100.00;52873.81;6277374;22;19918;-68
2023/08/28 03:21:08;;;;;;;;;;;;;;;-140.72;100.00;52879.91;6275505;22;20414;-68
2023/08/28 03:23:33;;;;;;;;;;;;;;;-140.72;100.00;52900.19;6301729;22;19919;-68
2023/08/28 03:25:59;;;;;;;;;;;;;;;-140.72;100.00;52886.00;6276636;22;19918;-68
2023/08/28 03:28:24;;;;;;;;;;;;;;;-140.72;100.00;52888.03;6301824;22;19926;-67
2023/08/28 03:30:49;;;;;;;;;;;;;;;-140.72;100.00;52888.03;6275268;22;19985;-67
2023/08/28 03:33:26;;;;;;;;;;;;;;;-140.72;100.00;52906.28;6276787;22;19919;-67
2023/08/28 03:35:51;;;;;;;;;;;;;;;-140.72;100.00;52855.56;6275626;22;20000;-67
2023/08/28 03:38:17;;;;;;;;;;;;;;;-140.72;100.00;52906.28;6277118;22;19915;-67
2023/08/28 03:40:43;;;;;;;;;;;;;;;-140.72;100.00;52898.16;6277167;22;20283;-68
2023/08/28 03:43:08;;;;;;;;;;;;;;;-140.72;100.00;52883.97;6277004;22;19911;-68
2023/08/28 03:45:33;;;;;;;;;;;;;;;-140.72;100.00;52890.06;6277149;22;20366;-68
2023/08/28 03:47:59;;;;;;;;;;;;;;;-140.72;100.00;52896.16;6277234;22;19941;-69
2023/08/28 03:50:28;;;;;;;;;;;;;;;-140.72;100.00;52869.75;6277532;22;20259;-68
2023/08/28 03:52:53;;;;;;;;;;;;;;;-140.72;100.00;52888.03;6277843;22;19993;-69
2023/08/28 03:55:19;;;;;;;;;;;;;;;-140.72;100.00;52881.94;6276596;22;19990;-69
2023/08/28 03:57:46;;;;;;;;;;;;;;;-140.72;100.00;52855.56;6276667;22;19943;-69
2023/08/28 04:00:13;;;;;;;;;;;;;;;-140.72;100.00;52851.50;6277089;22;19986;-69
2023/08/28 04:02:38;;;;;;;;;;;;;;;-140.72;100.00;52859.63;6277297;22;19934;-69
2023/08/28 04:05:04;;;;;;;;;;;;;;;-140.72;100.00;52865.69;6276978;22;19911;-69
2023/08/28 04:07:31;;;;;;;;;;;;;;;-140.72;100.00;52853.53;6276600;22;19918;-70
2023/08/28 04:10:02;;;;;;;;;;;;;;;-140.72;100.00;52855.56;6277286;22;19915;-69
2023/08/28 04:12:28;;;;;;;;;;;;;;;-140.72;100.00;52865.69;6276867;22;19911;-69
2023/08/28 04:14:53;;;;;;;;;;;;;;;-140.72;100.00;52861.66;6276891;22;19917;-69
2023/08/28 04:17:19;;;;;;;;;;;;;;;-140.72;100.00;52863.66;6276903;22;19911;-69
2023/08/28 04:19:45;;;;;;;;;;;;;;;-140.72;100.00;52849.47;6301089;22;19993;-69
2023/08/28 04:22:10;;;;;;;;;;;;;;;-140.72;100.00;52869.75;6276998;22;20247;-70
2023/08/28 04:24:35;;;;;;;;;;;;;;;-140.72;100.00;52812.94;6275366;22;19911;-70
2023/08/28 04:27:01;;;;;;;;;;;;;;;-140.72;100.00;52855.56;6276940;22;20386;-73
2023/08/28 04:29:26;;;;;;;;;;;;;;;-140.72;100.00;52829.19;6277869;22;20323;-73
2023/08/28 04:31:52;;;;;;;;;;;;;;;-140.72;100.00;52871.78;6275869;22;19935;-73
2023/08/28 04:34:17;;;;;;;;;;;;;;;-140.72;100.00;52861.66;6277000;22;20220;-72
2023/08/28 04:36:43;;;;;;;;;;;;;;;-140.72;100.00;52841.34;6277814;22;19918;-73
2023/08/28 04:39:08;;;;;;;;;;;;;;;-140.72;100.00;52879.91;6278778;22;19919;-72
2023/08/28 04:41:33;;;;;;;;;;;;;;;-140.72;100.00;52857.59;6276720;22;19911;-71
2023/08/28 04:43:59;;;;;;;;;;;;;;;-140.72;100.00;52879.91;6277467;22;19912;-72
2023/08/28 04:46:28;;;;;;;;;;;;;;;-140.72;100.00;52863.66;6279690;22;19966;-72
2023/08/28 04:48:53;;;;;;;;;;;;;;;-140.72;100.00;52873.81;6277886;22;19953;-72
2023/08/28 04:51:20;;;;;;;;;;;;;;;-140.72;100.00;52865.69;6277709;22;19911;-72
2023/08/28 04:53:45;;;;;;;;;;;;;;;-140.72;100.00;52863.66;6279327;22;19918;-72
2023/08/28 04:56:11;;;;;;;;;;;;;;;-140.72;100.00;52808.88;6277373;22;19911;-71
2023/08/28 04:58:36;;;;;;;;;;;;;;;-140.72;100.00;52853.53;6277391;22;19990;-74
2023/08/28 05:01:04;;;;;;;;;;;;;;;-140.72;100.00;52853.53;6276962;22;19911;-71
2023/08/28 05:03:30;;;;;;;;;;;;;;;-140.72;100.00;52869.75;6277210;22;19916;-71
2023/08/28 05:05:55;;;;;;;;;;;;;;;-140.72;100.00;52841.34;6278826;22;19911;-71
2023/08/28 05:08:22;;;;;;;;;;;;;;;-140.72;100.00;52879.91;6303591;22;19911;-71
2023/08/28 05:10:47;;;;;;;;;;;;;;;-140.72;100.00;52877.88;6277796;22;19911;-71
2023/08/28 05:13:13;;;;;;;;;;;;;;;-140.72;100.00;52841.34;6278992;22;20276;-72
2023/08/28 05:15:38;;;;;;;;;;;;;;;-140.72;100.00;52841.34;6303743;22;19912;-72
2023/08/28 05:18:03;;;;;;;;;;;;;;;-140.72;100.00;52847.44;6277570;22;19966;-72
2023/08/28 05:20:29;;;;;;;;;;;;;;;-140.72;100.00;52853.53;6251860;22;19915;-71
2023/08/28 05:22:54;;;;;;;;;;;;;;;-140.72;100.00;52869.75;6278687;22;19912;-72
2023/08/28 05:25:19;;;;;;;;;;;;;;;-140.72;100.00;52867.72;6278623;22;19915;-72
2023/08/28 05:27:45;;;;;;;;;;;;;;;-140.72;100.00;52873.81;6278769;22;19990;-71
2023/08/28 05:30:10;;;;;;;;;;;;;;;-140.72;100.00;52881.94;6276624;22;19961;-71
2023/08/28 05:32:35;;;;;;;;;;;;;;;-140.72;100.00;52881.94;6277196;22;20240;-71
2023/08/28 05:35:01;;;;;;;;;;;;;;;-140.72;100.00;52849.47;6276922;22;20329;-71
2023/08/28 05:37:26;;;;;;;;;;;;;;;-140.72;100.00;52835.25;6276612;22;20332;-71
2023/08/28 05:39:52;;;;;;;;;;;;;;;-140.72;100.00;52800.75;6278393;22;20385;-71
2023/08/28 05:42:17;;;;;;;;;;;;;;;-140.72;100.00;52855.56;6278967;22;19998;-72
2023/08/28 05:44:42;;;;;;;;;;;;;;;-140.72;100.00;52849.47;6279095;22;19997;-69
2023/08/28 05:47:08;;;;;;;;;;;;;;;-140.72;100.00;52857.59;6276976;22;19911;-72
2023/08/28 05:49:33;;;;;;;;;;;;;;;-140.72;100.00;52849.47;6276419;22;19945;-69
2023/08/28 05:52:02;;;;;;;;;;;;;;;-140.72;100.00;52817.00;6277091;22;19918;-76
2023/08/28 05:54:28;;;;;;;;;;;;;;;-140.72;100.00;52827.16;6278780;22;19998;-72
2023/08/28 05:56:53;;;;;;;;;;;;;;;-140.72;100.00;52833.22;6279109;22;19911;-70
2023/08/28 05:59:19;;;;;;;;;;;;;;;-140.72;100.00;52808.88;6276650;22;19911;-75
2023/08/28 06:01:44;;;;;;;;;;;;;;;-140.72;100.00;52810.91;6277317;22;19911;-70
2023/08/28 06:04:17;;;;;;;;;;;;;;;-140.72;100.00;52776.41;6278502;22;19912;-68
2023/08/28 06:06:42;;;;;;;;;;;;;;;-140.72;100.00;52780.47;6276226;22;19911;-69
2023/08/28 06:09:07;;;;;;;;;;;;;;;-140.72;100.00;52837.28;6278821;22;19911;-67
2023/08/28 06:11:35;;;;;;;;;;;;;;;-140.72;100.00;52796.72;6278364;22;19912;-68
2023/08/28 06:14:00;;;;;;;;;;;;;;;-140.72;100.00;52806.84;6276509;22;20011;-68
2023/08/28 06:16:25;;;;;;;;;;;;;;;-140.72;100.00;52788.59;6278371;22;20365;-68
2023/08/28 06:18:51;;;;;;;;;;;;;;;-140.72;100.00;52808.88;6276473;22;20201;-68
2023/08/28 06:21:16;;;;;;;;;;;;;;;-140.72;100.00;52788.59;6278098;22;20229;-68
2023/08/28 06:23:41;;;;;;;;;;;;;;;-140.72;100.00;52788.59;6275824;22;19915;-68
2023/08/28 06:26:07;;;;;;;;;;;;;;;-140.72;100.00;52784.53;6276730;22;19994;-68
2023/08/28 06:28:33;;;;;;;;;;;;;;;-140.72;100.00;52768.28;6277947;22;20254;-68
2023/08/28 06:30:58;;;;;;;;;;;;;;;-140.72;100.00;52784.53;6277602;22;19915;-68
2023/08/28 06:33:23;;;;;;;;;;;;;;;-140.72;100.00;52780.47;6277093;22;19911;-68
2023/08/28 06:35:49;;;;;;;;;;;;;;;-140.72;100.00;52800.75;6273394;22;20017;-68
2023/08/28 06:38:14;;;;;;;;;;;;;;;-140.72;100.00;52784.53;6273568;22;19916;-68
2023/08/28 06:40:39;;;;;;;;;;;;;;;-140.72;100.00;52808.88;6277588;22;19919;-69
2023/08/28 06:43:05;;;;;;;;;;;;;;;-140.72;100.00;52788.59;6274075;22;19912;-68
2023/08/28 06:45:31;;;;;;;;;;;;;;;-140.72;100.00;52784.53;6273919;22;19969;-70
2023/08/28 06:47:57;;;;;;;;;;;;;;;-140.72;100.00;52754.09;6272828;22;19911;-69
2023/08/28 06:50:23;;;;;;;;;;;;;;;-140.72;100.00;52784.53;6273500;22;20233;-67
2023/08/28 06:52:48;;;;;;;;;;;;;;;-140.72;100.00;52788.59;6277581;22;19911;-68
2023/08/28 06:55:13;;;;;;;;;;;;;;;-140.72;100.00;52739.88;6275669;22;19911;-68
2023/08/28 06:57:39;;;;;;;;;;;;;;;-140.72;100.00;52790.63;6275893;22;19927;-70
2023/08/28 07:00:05;;;;;;;;;;;;;;;-140.72;100.00;52782.50;6276381;22;19911;-70
2023/08/28 07:02:31;;;;;;;;;;;;;;;-140.72;100.00;52756.13;6276442;22;19911;-70
2023/08/28 07:05:07;;;;;;;;;;;;;;;-140.72;100.00;52786.56;6299867;22;20336;-69
2023/08/28 07:07:32;;;;;;;;;;;;;;;-140.72;100.00;52792.66;6275455;22;19916;-70
2023/08/28 07:09:57;;;;;;;;;;;;;;;-140.72;100.00;52772.34;6277344;22;19911;-76
2023/08/28 07:12:22;;;;;;;;;;;;;;;-140.72;100.00;52786.56;6276165;22;19911;-70
2023/08/28 07:15:14;;;;;;;;;;;;;;;-140.72;100.00;52723.66;6277186;22;19911;-70
2023/08/28 07:17:39;;;;;;;;;;;;;;;-140.72;100.00;52743.94;6270083;22;20465;-69
2023/08/28 07:20:11;;;;;;;;;;;;;;;-140.72;100.00;52762.22;6275986;22;19911;-69
2023/08/28 07:22:36;;;;;;;;;;;;;;;-140.72;100.00;52752.06;6275151;22;19911;-70
2023/08/28 07:25:04;;;;;;;;;;;;;;;-140.72;100.00;52768.28;6275772;22;19917;-70
2023/08/28 07:27:29;;;;;;;;;;;;;;;-140.72;100.00;52729.75;6277077;22;19922;-70
2023/08/28 07:29:55;;;;;;;;;;;;;;;-140.72;100.00;52776.41;6302076;22;20307;-70
2023/08/28 07:32:20;;;;;;;;;;;;;;;-140.72;100.00;52745.97;6276870;22;20025;-69
2023/08/28 07:34:45;;;;;;;;;;;;;;;-140.72;100.00;52770.31;6277136;22;19923;-69
2023/08/28 07:37:10;;;;;;;;;;;;;;;-140.72;100.00;52774.38;6275823;22;19919;-68
2023/08/28 07:39:36;;;;;;;;;;;;;;;-140.72;100.00;52743.94;6300289;22;19915;-69
2023/08/28 07:42:02;;;;;;;;;;;;;;;-140.72;100.00;52770.31;6276033;22;20334;-71
2023/08/28 07:44:27;;;;;;;;;;;;;;;-140.72;100.00;52772.34;6276591;22;19911;-72
2023/08/28 07:46:53;;;;;;;;;;;;;;;-140.72;100.00;52766.25;6276325;22;19994;-74
2023/08/28 07:49:18;;;;;;;;;;;;;;;-140.72;100.00;52745.97;6273395;22;19911;-72
2023/08/28 07:51:44;;;;;;;;;;;;;;;-140.72;100.00;52752.06;6274307;22;19915;-70
2023/08/28 07:54:10;;;;;;;;;;;;;;;-140.72;100.00;52756.13;6272644;22;19919;-68
2023/08/28 07:56:35;;;;;;;;;;;;;;;-140.72;100.00;52760.19;6274752;22;19946;-68
2023/08/28 07:59:01;;;;;;;;;;;;;;;-140.72;100.00;52780.47;6300292;22;19911;-68
2023/08/28 08:01:26;;;;;;;;;;;;;;;-140.72;100.00;52748.00;6301365;22;19915;-68
2023/08/28 08:03:51;;;;;;;;;;;;;;;-140.72;100.00;52758.16;6275798;22;19918;-69
2023/08/28 08:06:17;;;;;;;;;;;;;;;-140.72;100.00;52743.94;6275271;22;19915;-68
2023/08/28 08:08:44;;;;;;;;;;;;;;;-140.72;100.00;52727.72;6274400;22;19911;-68
2023/08/28 08:11:09;;;;;;;;;;;;;;;-140.72;100.00;52733.78;6274872;22;19911;-68
2023/08/28 08:13:34;;;;;;;;;;;;;;;-140.72;100.00;52754.09;6274208;22;19973;-68
2023/08/28 08:15:59;;;;;;;;;;;;;;;-140.72;100.00;52725.69;6300540;22;19912;-69
2023/08/28 08:18:25;;;;;;;;;;;;;;;-140.72;100.00;52695.25;6275502;22;19918;-68
2023/08/28 08:20:50;;;;;;;;;;;;;;;-140.72;100.00;52719.59;6275593;22;19911;-69
2023/08/28 08:23:15;;;;;;;;;;;;;;;-140.72;100.00;52691.19;6275937;22;19918;-68
2023/08/28 08:25:40;;;;;;;;;;;;;;;-140.72;100.00;52687.13;6273886;22;19970;-69
2023/08/28 08:28:06;;;;;;;;;;;;;;;-140.72;100.00;52689.16;6273235;22;19919;-68
2023/08/28 08:30:31;;;;;;;;;;;;;;;-140.72;100.00;52703.34;6275214;22;19950;-68
2023/08/28 08:32:56;;;;;;;;;;;;;;;-140.72;100.00;52691.19;6275136;22;19915;-68
2023/08/28 08:35:21;;;;;;;;;;;;;;;-140.72;100.00;52664.81;6274741;22;19950;-68
2023/08/28 08:37:47;;;;;;;;;;;;;;;-140.72;100.00;52632.34;6273625;22;19915;-68
2023/08/28 08:40:13;;;;;;;;;;;;;;;-140.72;100.00;52585.66;6300750;22;20343;-67
2023/08/28 08:42:39;;;;;;;;;;;;;;;-140.72;100.00;52567.41;6276598;22;19912;-69
2023/08/28 08:45:04;;;;;;;;;;;;;;;-140.72;100.00;52526.81;6274145;22;19911;-67
2023/08/28 08:47:30;;;;;;;;;;;;;;;-140.72;100.00;52480.16;6274683;22;19912;-69
2023/08/28 08:49:59;;;;;;;;;;;;;;;-140.72;100.00;52484.19;6273642;22;19918;-68
2023/08/28 08:52:24;;;;;;;;;;;;;;;-140.72;100.00;52492.31;6273640;22;19911;-68
2023/08/28 08:54:55;;;;;;;;;;;;;;;-140.72;100.00;52520.72;6273259;22;19919;-68
2023/08/28 08:57:30;;;;;;;;;;;;;;;-140.72;100.00;52559.28;6275552;22;19998;-69
2023/08/28 08:59:56;;;;;;;;;;;;;;;-140.72;100.00;52589.72;6273974;22;20321;-68
2023/08/28 09:02:21;;;;;;;;;;;;;;;-140.72;100.00;52644.50;6274368;22;19961;-69
2023/08/28 09:04:47;;;;;;;;;;;;;;;-140.72;100.00;52618.13;6273234;22;20063;-67
2023/08/28 09:07:12;;;;;;;;;;;;;;;-140.72;100.00;52603.94;6273340;22;19943;-68
2023/08/28 09:09:38;;;;;;;;;;;;;;;-140.72;100.00;52581.59;6274673;22;19919;-68
2023/08/28 09:12:03;;;;;;;;;;;;;;;-140.72;100.00;52553.19;6274995;22;19922;-70
2023/08/28 09:14:31;;;;;;;;;;;;;;;-140.72;100.00;52488.25;6275077;22;19911;-69
2023/08/28 09:16:56;;;;;;;;;;;;;;;-140.72;100.00;52474.06;6273371;22;19964;-68
2023/08/28 09:19:21;;;;;;;;;;;;;;;-140.72;100.00;52439.56;6274814;22;19915;-69
2023/08/28 09:21:48;;;;;;;;;;;;;;;-140.72;100.00;52415.22;6274258;22;19919;-69
2023/08/28 09:24:13;;;;;;;;;;;;;;;-140.72;0.00;52401.00;6273915;22;19912;-69
2023/08/28 09:26:39;;;;;;;;;;;;;;;-140.72;0.00;52409.13;6277244;22;19922;-69
2023/08/28 09:29:08;;;;;;;;;;;;;;;-140.72;0.00;52368.53;6278676;22;19911;-69
2023/08/28 09:31:37;;;;;;;;;;;;;;;-140.72;0.00;52321.88;6274263;22;19939;-69
2023/08/28 09:34:03;;;;;;;;;;;;;;;-140.72;0.00;52309.69;6276336;22;19915;-69
2023/08/28 09:36:32;;;;;;;;;;;;;;;-140.72;0.00;52285.34;6275310;22;19912;-68
2023/08/28 09:39:01;;;;;;;;;;;;;;;-140.72;0.00;52301.59;6274286;22;19957;-68
2023/08/28 09:41:36;;;;;;;;;;;;;;;-140.72;0.00;52277.22;6274945;22;19915;-69
2023/08/28 09:44:01;;;;;;;;;;;;;;;-140.72;0.00;52269.13;6276417;22;19985;-69
2023/08/28 09:46:26;;;;;;;;;;;;;;;-140.72;0.00;52301.59;6277191;22;20396;-70
2023/08/28 09:48:52;;;;;;;;;;;;;;;-140.72;0.00;52279.25;6276481;22;19993;-68
2023/08/28 09:51:18;;;;;;;;;;;;;;;-140.72;0.00;52277.22;6276056;22;19931;-69
2023/08/28 09:53:43;;;;;;;;;;;;;;;-140.72;0.00;52238.69;6274380;22;19911;-69
2023/08/28 09:56:08;;;;;;;;;;;;;;;-140.72;0.00;52226.50;6298734;22;19961;-69
2023/08/28 09:58:35;;;;;;;;;;;;;;;-140.72;0.00;52198.09;6273615;22;19912;-70
2023/08/28 10:01:00;;;;;;;;;;;;;;;-140.72;0.00;52273.19;6276113;22;20001;-70
2023/08/28 10:03:25;;;;;;;;;;;;;;;-140.72;0.00;52330.00;6299896;22;20344;-69
2023/08/28 10:05:52;;;;;;;;;;;;;;;-140.72;0.00;52273.19;6276018;22;20073;-70
2023/08/28 10:08:17;;;;;;;;;;;;;;;-140.72;0.00;52248.81;6277123;22;19943;-69
2023/08/28 10:10:47;;;;;;;;;;;;;;;-140.72;0.00;52309.69;6275693;22;20009;-68
2023/08/28 10:13:17;;;;;;;;;;;;;;;-140.72;0.00;52334.03;6275560;22;19911;-71
2023/08/28 10:15:49;;;;;;;;;;;;;;;-140.72;0.00;52362.44;6248583;22;19926;-70
2023/08/28 10:18:36;;;;;;;;;;;;;;;-140.72;0.00;52398.97;6274009;22;20166;-70
2023/08/28 10:21:01;;;;;;;;;;;;;;;-140.72;0.00;52486.22;6273676;22;19917;-69
2023/08/28 10:23:27;;;;;;;;;;;;;;;-140.72;0.00;52508.56;6274872;22;19915;-68
2023/08/28 10:25:53;;;;;;;;;;;;;;;-140.72;0.00;52536.97;6273100;22;19911;-69
2023/08/28 10:28:19;;;;;;;;;;;;;;;-140.72;0.00;52549.13;6300471;22;19917;-70
2023/08/28 10:30:46;;;;;;;;;;;;;;;-140.72;0.00;52557.25;6275054;22;20289;-70
2023/08/28 10:33:12;;;;;;;;;;;;;;;-140.72;0.00;52583.63;6275394;22;20390;-70
2023/08/28 10:35:38;;;;;;;;;;;;;;;-140.72;0.00;52618.13;6273730;22;20385;-70
2023/08/28 10:38:04;;;;;;;;;;;;;;;-140.72;15.62;52642.47;6275850;22;20426;-70
2023/08/28 10:40:30;;;;;;;;;;;;;;;-140.72;57.21;52626.25;6273411;22;19922;-69
2023/08/28 10:42:55;;;;;;;;;;;;;;;-140.72;46.86;52672.91;6276151;22;20244;-70
2023/08/28 10:45:21;;;;;;;;;;;;;;;-140.72;63.89;52597.84;6273130;22;19919;-70
2023/08/28 10:47:49;;;;;;;;;;;;;;;-140.72;100.00;52601.91;6275524;22;20314;-70
2023/08/28 10:50:15;;;;;;;;;;;;;;;-140.72;100.00;52626.25;6274660;22;20281;-70
2023/08/28 10:52:40;;;;;;;;;;;;;;;-140.72;100.00;52610.00;6275865;22;19921;-70
2023/08/28 10:55:06;;;;;;;;;;;;;;;-140.72;100.00;52593.78;6273385;22;19915;-70
2023/08/28 10:57:31;;;;;;;;;;;;;;;-140.72;100.00;52610.00;6274004;22;19922;-69
2023/08/28 11:00:02;;;;;;;;;;;;;;;-140.72;100.00;52447.69;6274337;22;19915;-70
2023/08/28 11:02:47;;;;;;;;;;;;;;;-140.72;7.38;52390.84;6275627;22;19915;-70
2023/08/28 11:05:13;;;;;;;;;;;;;;;-140.72;0.00;52232.59;6273798;22;19911;-70
2023/08/28 11:07:42;;;;;;;;;;;;;;;-140.72;0.00;52301.59;6274932;22;19947;-70
2023/08/28 11:10:15;;;;;;;;;;;;;;;-140.72;0.00;52224.47;6274752;22;19990;-71
2023/08/28 11:12:54;;;;;;;;;;;;;;;-140.72;0.00;52275.19;6272911;22;19911;-70
2023/08/28 11:15:30;;;;;;;;;;;;;;;-140.72;0.00;52313.75;6275586;22;19911;-70
2023/08/28 11:18:14;;;;;;;;;;;;;;;-140.72;0.00;52317.81;6273073;22;19911;-71
2023/08/28 11:20:39;;;;;;;;;;;;;;;-140.72;0.00;52403.03;6273889;22;19915;-70
2023/08/28 11:23:05;;;;;;;;;;;;;;;-140.72;0.00;52435.50;6275310;22;19922;-70
2023/08/28 11:25:39;;;;;;;;;;;;;;;-140.72;0.00;52500.44;6274873;22;19911;-70
2023/08/28 11:28:04;;;;;;;;;;;;;;;-140.72;0.00;52486.22;6276460;22;19919;-71
2023/08/28 11:30:29;;;;;;;;;;;;;;;-140.72;0.00;52522.75;6273915;22;19911;-70
2023/08/28 11:32:55;;;;;;;;;;;;;;;-140.72;0.00;52502.47;6274906;22;19939;-70
2023/08/28 11:35:21;;;;;;;;;;;;;;;-140.72;0.00;52526.81;6277291;22;19915;-69
2023/08/28 11:37:48;;;;;;;;;;;;;;;-140.72;0.00;52356.38;6274109;22;19915;-70
2023/08/28 11:40:18;;;;;;;;;;;;;;;-140.72;0.00;52354.34;6276523;22;19919;-70
2023/08/28 11:42:46;;;;;;;;;;;;;;;-140.72;0.00;52256.94;6274099;22;19919;-69
2023/08/28 11:45:17;;;;;;;;;;;;;;;-140.72;0.00;52175.78;6272732;22;19946;-69
2023/08/28 11:47:42;;;;;;;;;;;;;;;-140.72;0.00;52041.88;6273484;22;19919;-70
2023/08/28 11:50:08;;;;;;;;;;;;;;;-140.72;0.00;52125.06;6274260;22;20224;-70
2023/08/28 11:52:33;;;;;;;;;;;;;;;-140.72;0.00;52157.53;6273935;22;19975;-70
2023/08/28 11:55:00;;;;;;;;;;;;;;;-140.72;0.00;52283.31;6272352;22;19955;-69
2023/08/28 11:57:26;;;;;;;;;;;;;;;-140.72;0.00;52309.69;6273706;22;20240;-71
2023/08/28 11:59:52;;;;;;;;;;;;;;;-140.72;0.00;52419.28;6299880;22;19911;-71
2023/08/28 12:02:19;;;;;;;;;;;;;;;-140.72;0.00;52472.03;6274900;22;19917;-70
2023/08/28 12:04:48;;;;;;;;;;;;;;;-140.72;0.00;52445.66;6272624;22;20175;-69
2023/08/28 12:07:21;;;;;;;;;;;;;;;-140.72;0.00;52492.31;6275210;22;19994;-68
2023/08/28 12:09:47;;;;;;;;;;;;;;;-140.72;0.00;52500.44;6273083;22;20280;-69
2023/08/28 12:12:13;;;;;;;;;;;;;;;-140.72;0.00;52508.56;6274649;22;20250;-69
2023/08/28 12:14:40;;;;;;;;;;;;;;;-140.72;0.00;52524.78;6271954;22;20312;-69
2023/08/28 12:17:05;;;;;;;;;;;;;;;-140.72;0.00;52516.66;6274345;22;19911;-69
2023/08/28 12:19:31;;;;;;;;;;;;;;;-140.72;0.00;52500.44;6273746;22;19915;-69